Time,TemperatureF,DewpointF,PressureIn,WindDirection,WindDirectionDegrees,WindSpeedMPH,WindSpeedGustMPH,Humidity,HourlyPrecipIn,Conditions,Clouds,dailyrainin,SolarRadiationWatts/m^2,SoftwareType,DateUTC
2013-05-16 00:09:00,66.9,62.6,29.94,West,263,0.0,0.0,86,0.00,,,0.00,0,Wunderground v.1.15,2013-05-16 05:09:00,
2013-05-16 00:19:00,66.3,62.3,29.93,West,263,0.0,0.0,87,0.00,,,0.00,0,Wunderground v.1.15,2013-05-16 05:19:00,
2013-05-16 00:24:00,66.0,62.3,29.93,West,263,0.0,0.0,88,0.00,,,0.00,0,Wunderground v.1.15,2013-05-16 05:24:00,
2013-05-16 00:34:00,65.6,62.3,29.93,West,263,0.0,0.0,89,0.00,,,0.00,0,Wunderground v.1.15,2013-05-16 05:34:00,
2013-05-16 00:39:00,65.5,62.2,29.93,West,263,0.0,0.0,89,0.00,,,0.00,0,Wunderground v.1.15,2013-05-16 05:39:00,
2013-05-16 00:49:00,65.1,61.8,29.93,West,263,0.0,0.0,89,0.00,,,0.00,0,Wunderground v.1.15,2013-05-16 05:49:00,
2013-05-16 00:59:00,64.6,61.6,29.93,West,263,0.0,0.0,90,0.00,,,0.00,0,Wunderground v.1.15,2013-05-16 05:59:00,
2013-05-16 01:09:00,64.3,61.3,29.93,West,263,0.0,0.0,90,0.00,,,0.00,0,Wunderground v.1.15,2013-05-16 06:09:00,
2013-05-16 01:19:00,63.1,60.7,29.93,West,263,0.0,0.0,92,0.00,,,0.00,0,Wunderground v.1.15,2013-05-16 06:19:00,
2013-05-16 01:29:00,63.9,61.5,29.92,SW,223,1.0,2.0,92,0.00,,,0.00,0,Wunderground v.1.15,2013-05-16 06:29:00,
2013-05-16 01:39:00,64.1,61.1,29.91,SW,223,3.0,3.0,90,0.00,,,0.00,0,Wunderground v.1.15,2013-05-16 06:39:00,
2013-05-16 01:49:00,64.4,60.4,29.91,SW,217,3.0,5.0,87,0.00,,,0.00,0,Wunderground v.1.15,2013-05-16 06:49:00,
2013-05-16 01:59:00,64.4,60.1,29.91,SSW,205,3.0,3.0,86,0.00,,,0.00,0,Wunderground v.1.15,2013-05-16 06:59:00,
2013-05-16 02:04:00,64.4,60.1,29.91,SW,226,3.0,5.0,86,0.00,,,0.00,0,Wunderground v.1.15,2013-05-16 07:04:00,
2013-05-16 02:14:00,64.7,59.8,29.91,SW,225,4.0,4.0,84,0.00,,,0.00,0,Wunderground v.1.15,2013-05-16 07:14:00,
2013-05-16 02:19:00,65.0,59.7,29.91,SW,225,4.0,4.0,83,0.00,,,0.00,0,Wunderground v.1.15,2013-05-16 07:19:00,
2013-05-16 02:29:00,65.3,59.7,29.92,SSW,197,4.0,4.0,82,0.00,,,0.00,0,Wunderground v.1.15,2013-05-16 07:29:00,
2013-05-16 02:39:00,65.0,59.7,29.91,SSW,209,5.0,5.0,83,0.00,,,0.00,0,Wunderground v.1.15,2013-05-16 07:39:00,
2013-05-16 02:49:00,64.9,59.6,29.91,SSW,206,5.0,5.0,83,0.00,,,0.00,0,Wunderground v.1.15,2013-05-16 07:49:00,
2013-05-16 02:59:00,65.0,59.7,29.92,SSW,212,2.0,2.0,83,0.00,,,0.00,0,Wunderground v.1.15,2013-05-16 07:59:00,
2013-05-16 03:04:00,64.9,59.3,29.92,SSW,212,1.0,2.0,82,0.00,,,0.00,0,Wunderground v.1.15,2013-05-16 08:04:00,
2013-05-16 03:14:00,64.7,59.4,29.92,SSW,212,0.0,0.0,83,0.00,,,0.00,0,Wunderground v.1.15,2013-05-16 08:14:00,
2013-05-16 03:24:00,64.1,59.2,29.92,SSW,212,0.0,1.0,84,0.00,,,0.00,0,Wunderground v.1.15,2013-05-16 08:24:00,
2013-05-16 03:29:00,64.1,59.5,29.92,ESE,105,1.0,1.0,85,0.00,,,0.00,0,Wunderground v.1.15,2013-05-16 08:29:00,
2013-05-16 03:39:00,64.2,59.3,29.92,East,96,2.0,2.0,84,0.00,,,0.00,0,Wunderground v.1.15,2013-05-16 08:39:00,
2013-05-16 03:49:00,63.9,59.3,29.93,East,93,1.0,1.0,85,0.00,,,0.00,0,Wunderground v.1.15,2013-05-16 08:49:00,
2013-05-16 03:59:00,63.5,59.2,29.93,East,93,0.0,0.0,86,0.00,,,0.00,0,Wunderground v.1.15,2013-05-16 08:59:00,
2013-05-16 04:09:00,63.7,59.4,29.94,East,93,1.0,1.0,86,0.00,,,0.00,0,Wunderground v.1.15,2013-05-16 09:09:00,
2013-05-16 04:19:00,64.2,59.6,29.95,ESE,103,1.0,1.0,85,0.00,,,0.00,0,Wunderground v.1.15,2013-05-16 09:19:00,
2013-05-16 04:24:00,64.3,59.7,29.95,ESE,122,1.0,1.0,85,0.00,,,0.00,0,Wunderground v.1.15,2013-05-16 09:24:00,
2013-05-16 04:34:00,64.1,59.5,29.95,ESE,122,1.0,1.0,85,0.00,,,0.00,0,Wunderground v.1.15,2013-05-16 09:34:00,
2013-05-16 04:44:00,64.0,59.7,29.95,ESE,122,0.0,1.0,86,0.00,,,0.00,0,Wunderground v.1.15,2013-05-16 09:44:00,
2013-05-16 04:54:00,63.9,59.6,29.95,SE,126,1.0,1.0,86,0.00,,,0.00,0,Wunderground v.1.15,2013-05-16 09:54:00,
2013-05-16 05:04:00,63.6,59.7,29.95,SSE,161,1.0,2.0,87,0.00,,,0.00,0,Wunderground v.1.15,2013-05-16 10:04:00,
2013-05-16 05:09:00,63.7,59.8,29.95,South,169,1.0,1.0,87,0.00,,,0.00,0,Wunderground v.1.15,2013-05-16 10:09:00,
2013-05-16 05:19:00,64.0,59.7,29.96,SSE,165,1.0,1.0,86,0.00,,,0.00,0,Wunderground v.1.15,2013-05-16 10:19:00,
2013-05-16 05:29:00,64.4,59.8,29.96,SSE,166,1.0,1.0,85,0.00,,,0.00,0,Wunderground v.1.15,2013-05-16 10:29:00,
2013-05-16 05:38:00,64.3,59.7,29.96,SSE,166,0.0,2.0,85,0.00,,,0.00,0,Wunderground v.1.15,2013-05-16 10:38:00,
2013-05-16 05:44:00,64.3,59.7,29.96,SSE,166,1.0,2.0,85,0.00,,,0.00,0,Wunderground v.1.15,2013-05-16 10:44:00,
2013-05-16 05:54:00,64.2,59.9,29.96,SSE,166,0.0,1.0,86,0.00,,,0.00,0,Wunderground v.1.15,2013-05-16 10:54:00,
2013-05-16 05:59:00,64.1,59.8,29.96,SSE,166,0.0,0.0,86,0.00,,,0.00,0,Wunderground v.1.15,2013-05-16 10:59:00,
2013-05-16 06:05:00,64.2,59.9,29.96,SSE,166,0.0,2.0,86,0.00,,,0.00,0,Wunderground v.1.15,2013-05-16 11:05:00,
2013-05-16 06:15:00,64.1,59.8,29.96,SSE,166,1.0,2.0,86,0.00,,,0.00,9,Wunderground v.1.15,2013-05-16 11:15:00,
2013-05-16 06:25:00,64.4,59.8,29.96,SSE,159,3.0,3.0,85,0.00,,,0.00,30,Wunderground v.1.15,2013-05-16 11:25:00,
2013-05-16 06:34:00,64.7,60.1,29.97,SE,144,3.0,4.0,85,0.00,,,0.00,39,Wunderground v.1.15,2013-05-16 11:34:00,
2013-05-16 06:44:00,64.8,60.2,29.97,SSE,153,2.0,3.0,85,0.00,,,0.00,44,Wunderground v.1.15,2013-05-16 11:44:00,
2013-05-16 06:49:00,64.7,60.1,29.97,SSE,156,1.0,1.0,85,0.00,,,0.00,54,Wunderground v.1.15,2013-05-16 11:49:00,
2013-05-16 06:59:00,64.7,60.4,29.97,SSE,156,0.0,1.0,86,0.00,,,0.00,65,Wunderground v.1.15,2013-05-16 11:59:00,
2013-05-16 07:05:00,64.8,60.5,29.97,SSE,156,0.0,1.0,86,0.00,,,0.00,77,Wunderground v.1.15,2013-05-16 12:05:00,
2013-05-16 07:15:00,65.3,60.7,29.97,SSE,156,0.0,0.0,85,0.00,,,0.00,97,Wunderground v.1.15,2013-05-16 12:15:00,
2013-05-16 07:24:00,65.8,61.5,29.97,SSE,156,0.0,0.0,86,0.00,,,0.00,156,Wunderground v.1.15,2013-05-16 12:24:00,
2013-05-16 07:34:00,66.8,62.1,29.97,SSE,156,0.0,0.0,85,0.00,,,0.00,290,Wunderground v.1.15,2013-05-16 12:34:00,
2013-05-16 07:44:00,68.0,62.6,29.97,SSE,156,0.0,1.0,83,0.00,,,0.00,281,Wunderground v.1.15,2013-05-16 12:44:00,
2013-05-16 07:54:00,68.2,63.2,29.96,SSE,156,1.0,1.0,84,0.00,,,0.00,257,Wunderground v.1.15,2013-05-16 12:54:00,
2013-05-16 07:59:00,68.4,63.0,29.96,SSE,156,1.0,2.0,83,0.00,,,0.00,258,Wunderground v.1.15,2013-05-16 12:59:00,
2013-05-16 08:09:00,69.2,63.5,29.96,SSE,156,0.0,0.0,82,0.00,,,0.00,346,Wunderground v.1.15,2013-05-16 13:09:00,
2013-05-16 08:19:00,70.0,64.2,29.96,SSE,156,0.0,0.0,82,0.00,,,0.00,374,Wunderground v.1.15,2013-05-16 13:19:00,
2013-05-16 08:24:00,70.4,64.3,29.96,SSE,156,0.0,4.0,81,0.00,,,0.00,394,Wunderground v.1.15,2013-05-16 13:24:00,
2013-05-16 08:34:00,71.6,64.4,29.96,SW,222,3.0,4.0,78,0.00,,,0.00,392,Wunderground v.1.15,2013-05-16 13:34:00,
2013-05-16 08:44:00,70.8,64.0,29.96,SW,220,2.0,3.0,79,0.00,,,0.00,394,Wunderground v.1.15,2013-05-16 13:44:00,
2013-05-16 08:54:00,71.1,64.6,29.97,SW,215,1.0,2.0,80,0.00,,,0.00,452,Wunderground v.1.15,2013-05-16 13:54:00,
2013-05-16 08:59:00,71.4,64.5,29.97,SW,215,1.0,1.0,79,0.00,,,0.00,401,Wunderground v.1.15,2013-05-16 13:59:00,
2013-05-16 09:09:00,71.2,64.4,29.96,South,180,1.0,1.0,79,0.00,,,0.00,360,Wunderground v.1.15,2013-05-16 14:09:00,
2013-05-16 09:19:00,71.3,64.4,29.96,SSE,167,1.0,1.0,79,0.00,,,0.00,413,Wunderground v.1.15,2013-05-16 14:19:00,
2013-05-16 09:29:00,71.8,64.2,29.96,SSE,167,1.0,2.0,77,0.00,,,0.00,417,Wunderground v.1.15,2013-05-16 14:29:00,
2013-05-16 09:39:00,71.8,64.2,29.96,SE,142,1.0,1.0,77,0.00,,,0.00,438,Wunderground v.1.15,2013-05-16 14:39:00,
2013-05-16 09:49:00,72.3,64.3,29.96,SE,140,1.0,2.0,76,0.00,,,0.00,468,Wunderground v.1.15,2013-05-16 14:49:00,
2013-05-16 09:59:00,72.8,64.4,29.95,SE,134,1.0,2.0,75,0.00,,,0.00,596,Wunderground v.1.15,2013-05-16 14:59:00,
2013-05-16 10:09:00,73.3,64.9,29.95,East,95,3.0,3.0,75,0.00,,,0.00,682,Wunderground v.1.15,2013-05-16 15:09:00,
2013-05-16 10:14:00,73.5,64.7,29.95,ESE,102,3.0,3.0,74,0.00,,,0.00,687,Wunderground v.1.15,2013-05-16 15:14:00,
2013-05-16 10:24:00,73.8,64.6,29.95,ESE,107,3.0,3.0,73,0.00,,,0.00,765,Wunderground v.1.15,2013-05-16 15:24:00,
2013-05-16 10:34:00,74.0,64.8,29.94,SE,137,3.0,5.0,73,0.00,,,0.00,751,Wunderground v.1.15,2013-05-16 15:34:00,
2013-05-16 10:44:00,74.8,65.2,29.94,East,90,3.0,4.0,72,0.00,,,0.00,835,Wunderground v.1.15,2013-05-16 15:44:00,
2013-05-16 10:49:00,74.1,64.5,29.94,ESE,120,3.0,3.0,72,0.00,,,0.00,341,Wunderground v.1.15,2013-05-16 15:49:00,
2013-05-16 10:59:00,74.4,64.0,29.93,SE,129,3.0,4.0,70,0.00,,,0.00,844,Wunderground v.1.15,2013-05-16 15:59:00,
2013-05-16 11:09:00,75.1,64.6,29.93,SE,130,5.0,5.0,70,0.00,,,0.00,837,Wunderground v.1.15,2013-05-16 16:09:00,
2013-05-16 11:19:00,75.1,64.6,29.93,SSE,148,4.0,9.0,70,0.00,,,0.00,404,Wunderground v.1.15,2013-05-16 16:19:00,
2013-05-16 11:24:00,75.7,64.8,29.93,SE,146,5.0,9.0,69,0.00,,,0.00,958,Wunderground v.1.15,2013-05-16 16:24:00,
2013-05-16 11:34:00,76.3,64.1,29.93,SE,130,5.0,5.0,66,0.00,,,0.00,976,Wunderground v.1.15,2013-05-16 16:34:00,
2013-05-16 11:44:00,76.1,63.9,29.93,SE,136,5.0,5.0,66,0.00,,,0.00,446,Wunderground v.1.15,2013-05-16 16:44:00,
2013-05-16 11:49:00,76.0,64.2,29.93,SSE,159,4.0,4.0,67,0.00,,,0.00,348,Wunderground v.1.15,2013-05-16 16:49:00,
2013-05-16 11:59:00,76.3,64.1,29.92,South,180,4.0,5.0,66,0.00,,,0.00,795,Wunderground v.1.15,2013-05-16 16:59:00,
2013-05-16 12:09:00,77.1,64.0,29.92,SE,135,5.0,5.0,64,0.00,,,0.00,1114,Wunderground v.1.15,2013-05-16 17:09:00,
2013-05-16 12:19:00,77.0,63.9,29.92,East,99,4.0,4.0,64,0.00,,,0.00,411,Wunderground v.1.15,2013-05-16 17:19:00,
2013-05-16 12:29:00,77.0,63.9,29.92,ENE,68,4.0,4.0,64,0.00,,,0.00,1136,Wunderground v.1.15,2013-05-16 17:29:00,
2013-05-16 12:39:00,77.4,62.9,29.92,ESE,123,4.0,5.0,61,0.00,,,0.00,485,Wunderground v.1.15,2013-05-16 17:39:00,